Time,TemperatureF,DewpointF,PressureIn,WindDirection,WindDirectionDegrees,WindSpeedMPH,WindSpeedGustMPH,Humidity,HourlyPrecipIn,Conditions,Clouds,dailyrainin,SoftwareType,DateUTC
2018-04-23 00:01:00,57.6,46.0,30.02,North,4,1.0,2.0,65,0.00,,,0.00,weatherlink.com 1.10,2018-04-23 05:01:00,
2018-04-23 00:16:00,57.8,45.0,30.02,NNE,32,2.0,2.0,62,0.00,,,0.00,weatherlink.com 1.10,2018-04-23 05:16:00,
2018-04-23 00:31:00,57.7,44.0,30.02,ENE,58,1.0,3.0,61,0.00,,,0.00,weatherlink.com 1.10,2018-04-23 05:31:00,
2018-04-23 00:46:00,57.7,43.0,30.02,ENE,64,1.0,6.0,59,0.00,,,0.00,weatherlink.com 1.10,2018-04-23 05:46:00,
2018-04-23 01:01:00,57.7,43.0,30.01,NE,39,0.0,1.0,58,0.00,,,0.00,weatherlink.com 1.10,2018-04-23 06:01:00,
2018-04-23 01:16:00,57.4,43.0,30.01,NNE,23,0.0,2.0,59,0.00,,,0.00,weatherlink.com 1.10,2018-04-23 06:16:00,
2018-04-23 01:31:00,57.1,43.0,30.01,NNE,23,2.0,2.0,59,0.00,,,0.00,weatherlink.com 1.10,2018-04-23 06:31:00,
2018-04-23 01:46:00,56.9,42.0,30.00,NNW,345,1.0,2.0,59,0.00,,,0.00,weatherlink.com 1.10,2018-04-23 06:46:00,
2018-04-23 02:01:00,56.9,42.0,30.00,NNW,345,0.0,3.0,58,0.00,,,0.00,weatherlink.com 1.10,2018-04-23 07:01:00,
2018-04-23 02:16:00,56.8,42.0,29.99,NE,50,0.0,2.0,58,0.00,,,0.00,weatherlink.com 1.10,2018-04-23 07:16:00,
2018-04-23 02:31:00,56.6,42.0,29.99,North,352,1.0,2.0,58,0.00,,,0.00,weatherlink.com 1.10,2018-04-23 07:31:00,
2018-04-23 02:46:00,56.3,42.0,29.99,NNW,346,1.0,3.0,60,0.00,,,0.00,weatherlink.com 1.10,2018-04-23 07:46:00,
2018-04-23 03:01:00,55.6,43.0,29.98,NNW,333,2.0,2.0,63,0.00,,,0.00,weatherlink.com 1.10,2018-04-23 08:01:00,
2018-04-23 03:18:00,54.9,43.0,29.98,NNW,340,0.0,2.0,65,0.00,,,0.00,weatherlink.com 1.10,2018-04-23 08:18:00,
2018-04-23 03:31:00,54.3,43.0,29.98,NW,319,3.0,3.0,67,0.00,,,0.00,weatherlink.com 1.10,2018-04-23 08:31:00,
2018-04-23 03:46:00,54.0,44.0,29.98,ENE,66,1.0,3.0,68,0.00,,,0.00,weatherlink.com 1.10,2018-04-23 08:46:00,
2018-04-23 04:01:00,53.9,43.0,29.99,North,351,0.0,4.0,68,0.00,,,0.00,weatherlink.com 1.10,2018-04-23 09:01:00,
2018-04-23 04:32:00,52.8,44.0,29.98,North,357,3.0,4.0,73,0.01,,,0.01,weatherlink.com 1.10,2018-04-23 09:32:00,
2018-04-23 04:47:00,51.3,45.0,29.97,North,354,2.0,3.0,79,0.02,,,0.02,weatherlink.com 1.10,2018-04-23 09:47:00,
2018-04-23 05:02:00,50.4,45.0,29.97,North,354,1.0,3.0,82,0.03,,,0.03,weatherlink.com 1.10,2018-04-23 10:02:00,
2018-04-23 05:17:00,50.1,45.0,29.98,NNW,345,0.0,3.0,82,0.03,,,0.03,weatherlink.com 1.10,2018-04-23 10:17:00,
2018-04-23 05:32:00,49.7,45.0,29.98,NNW,338,2.0,3.0,84,0.03,,,0.04,weatherlink.com 1.10,2018-04-23 10:32:00,
2018-04-23 05:47:00,49.1,45.0,29.98,North,352,2.0,2.0,86,0.03,,,0.05,weatherlink.com 1.10,2018-04-23 10:47:00,
2018-04-23 06:02:00,48.4,45.0,29.98,NNW,338,0.0,4.0,88,0.03,,,0.06,weatherlink.com 1.10,2018-04-23 11:02:00,
2018-04-23 06:17:00,48.1,45.0,29.98,NNW,346,2.0,3.0,89,0.03,,,0.06,weatherlink.com 1.10,2018-04-23 11:17:00,
2018-04-23 06:33:00,48.0,45.0,29.98,North,356,0.0,3.0,89,0.02,,,0.06,weatherlink.com 1.10,2018-04-23 11:33:00,
2018-04-23 06:47:00,47.9,45.0,29.98,North,359,2.0,4.0,89,0.01,,,0.06,weatherlink.com 1.10,2018-04-23 11:47:00,
2018-04-23 07:02:00,47.9,45.0,29.98,North,11,2.0,3.0,88,0.00,,,0.06,weatherlink.com 1.10,2018-04-23 12:02:00,
2018-04-23 07:17:00,48.3,44.0,29.98,NNW,337,1.0,4.0,86,0.00,,,0.06,weatherlink.com 1.10,2018-04-23 12:17:00,
2018-04-23 07:32:00,48.5,45.0,29.99,NE,47,1.0,5.0,86,0.00,,,0.06,weatherlink.com 1.10,2018-04-23 12:32:00,
2018-04-23 07:47:00,48.4,45.0,29.99,North,350,2.0,5.0,88,0.00,,,0.06,weatherlink.com 1.10,2018-04-23 12:47:00,
2018-04-23 08:02:00,48.3,46.0,29.98,East,82,2.0,6.0,90,0.00,,,0.06,weatherlink.com 1.10,2018-04-23 13:02:00,
2018-04-23 08:17:00,48.2,46.0,29.98,NNW,345,3.0,7.0,92,0.00,,,0.06,weatherlink.com 1.10,2018-04-23 13:17:00,
2018-04-23 08:32:00,48.1,46.0,29.98,NNE,30,1.0,6.0,93,0.00,,,0.06,weatherlink.com 1.10,2018-04-23 13:32:00,
2018-04-23 08:47:00,48.2,47.0,29.98,North,1,2.0,5.0,94,0.01,,,0.07,weatherlink.com 1.10,2018-04-23 13:47:00,
2018-04-23 09:02:00,48.6,47.0,29.99,NNW,345,0.0,6.0,95,0.02,,,0.08,weatherlink.com 1.10,2018-04-23 14:02:00,
2018-04-23 09:17:00,49.1,48.0,29.99,NE,53,1.0,3.0,96,0.02,,,0.08,weatherlink.com 1.10,2018-04-23 14:17:00,
2018-04-23 09:32:00,49.8,49.0,29.99,North,6,0.0,5.0,96,0.02,,,0.08,weatherlink.com 1.10,2018-04-23 14:32:00,
2018-04-23 09:47:00,50.2,49.0,29.99,NE,43,1.0,4.0,96,0.00,,,0.08,weatherlink.com 1.10,2018-04-23 14:47:00,
2018-04-23 10:02:00,50.4,49.0,29.99,NE,44,1.0,6.0,96,0.00,,,0.08,weatherlink.com 1.10,2018-04-23 15:02:00,
2018-04-23 10:17:00,50.6,50.0,29.99,NE,35,1.0,3.0,97,0.00,,,0.08,weatherlink.com 1.10,2018-04-23 15:17:00,
2018-04-23 10:32:00,51.2,50.0,29.99,NE,34,1.0,5.0,97,0.00,,,0.08,weatherlink.com 1.10,2018-04-23 15:32:00,
2018-04-23 10:47:00,51.8,51.0,29.99,North,8,1.0,3.0,97,0.00,,,0.08,weatherlink.com 1.10,2018-04-23 15:47:00,
2018-04-23 11:02:00,52.3,52.0,29.99,NE,36,2.0,4.0,97,0.00,,,0.08,weatherlink.com 1.10,2018-04-23 16:02:00,
2018-04-23 11:17:00,52.9,52.0,30.00,ENE,58,1.0,3.0,96,0.00,,,0.08,weatherlink.com 1.10,2018-04-23 16:17:00,
2018-04-23 11:32:00,53.3,52.0,29.99,NNE,30,1.0,4.0,96,0.00,,,0.08,weatherlink.com 1.10,2018-04-23 16:32:00,
2018-04-23 11:47:00,53.9,53.0,29.99,NE,39,2.0,3.0,95,0.00,,,0.08,weatherlink.com 1.10,2018-04-23 16:47:00,
2018-04-23 12:02:00,54.6,53.0,29.99,NNE,32,3.0,7.0,94,0.00,,,0.08,weatherlink.com 1.10,2018-04-23 17:02:00,
2018-04-23 12:17:00,55.2,53.0,29.99,NE,41,2.0,4.0,93,0.00,,,0.08,weatherlink.com 1.10,2018-04-23 17:17:00,
2018-04-23 12:32:00,55.5,53.0,29.98,NE,44,1.0,3.0,92,0.00,,,0.08,weatherlink.com 1.10,2018-04-23 17:32:00,
2018-04-23 12:47:00,56.1,54.0,29.98,NNE,12,3.0,5.0,92,0.00,,,0.08,weatherlink.com 1.10,2018-04-23 17:47:00,
2018-04-23 13:02:00,56.6,54.0,29.98,NE,53,1.0,4.0,91,0.00,,,0.08,weatherlink.com 1.10,2018-04-23 18:02:00,